Terminal Aerodrome Forecast
Issued by NWS

Home | Current Version | Previous Version | Text Only | Print | Product List | Glossary Off
Versions: 1 2 3 4 5 6 7 8 9 10 11 12 13 14 15 16 17 18 19 20 21 22 23

000
FTUS43 KGRB 282300
TAFATW
TAF
KATW 282328Z 2900/2924 19004KT P6SM SCT250
     FM290700 VRB03KT 6SM BR SCT250
     FM291300 33007KT 5SM BR SCT025 BKN060
     FM291700 35009G16KT P6SM VCSH SCT012 OVC025
      TEMPO 2919/2923 3SM -SHRA BKN012
     FM292300 02012G20KT P6SM -SHRA SCT012 OVC020=

USA.gov is the U.S. government's official web portal to all federal, state and local government web resources and services.